ENBR/BGO METAR and TAF weather

Enter ICAO airport designator
Station Type Date Time Source
ENBR METAR 2022/11/26 07:50 UTC NOAA

ENBR 260750Z 15011KT 9999 SCT020 08/05 Q1017 NOSIG RMK WIND 1200FT 15018KT


Station Type Date Time Source
ENBR Decoded METAR 2022/11/26 07:50 UTC NOAA

Bergen / Flesland, Norway (ENBR) 60-17N 005-14E 50M
Nov 26, 2022 - 02:50 AM EST / 2022.11.26 0750 UTC
Wind: from the SSE (150 degrees) at 13 MPH (11 KT):0
Visibility: greater than 7 mile(s):0
Sky conditions: partly cloudy
Temperature: 46 F (8 C)
Dew Point: 41 F (5 C)
Relative Humidity: 81%
Pressure (altimeter): 30.03 in. Hg (1017 hPa)
ob: ENBR 260750Z 15011KT 9999 SCT020 08/05 Q1017 NOSIG RMK WIND 1200FT 15018KT
cycle: 8

Station Type Date Time Source
ENBR TAF 2022/11/26 06:57 UTC NOAA

TAF ENBR 260500Z 2606/2706 16012KT 9999 BKN020
TEMPO 2606/2610 SHRA BKN014 SCT025CB
TEMPO 2617/2624 16018G32KT

Example: see airport list